sensor_id;sensor_type;location;lat;lon;timestamp;P1;durP1;ratioP1;P2;durP2;ratioP2
36189;SDS011;22232;50.914;13.858;2022-07-29T00:01:40;71.57;;;39.70;;
36189;SDS011;22232;50.914;13.858;2022-07-29T00:04:09;74.78;;;43.83;;
36189;SDS011;22232;50.914;13.858;2022-07-29T00:06:37;82.78;;;48.92;;
36189;SDS011;22232;50.914;13.858;2022-07-29T00:09:05;90.85;;;54.00;;
36189;SDS011;22232;50.914;13.858;2022-07-29T00:11:32;98.28;;;59.25;;
36189;SDS011;22232;50.914;13.858;2022-07-29T00:14:00;115.10;;;68.82;;
36189;SDS011;22232;50.914;13.858;2022-07-29T00:16:27;121.72;;;77.90;;
36189;SDS011;22232;50.914;13.858;2022-07-29T00:18:55;135.20;;;85.65;;
36189;SDS011;22232;50.914;13.858;2022-07-29T00:21:28;129.52;;;83.57;;
36189;SDS011;22232;50.914;13.858;2022-07-29T00:23:55;125.63;;;80.70;;
36189;SDS011;22232;50.914;13.858;2022-07-29T00:26:23;142.55;;;89.13;;
36189;SDS011;22232;50.914;13.858;2022-07-29T00:28:51;132.90;;;83.55;;
36189;SDS011;22232;50.914;13.858;2022-07-29T00:31:38;122.25;;;75.97;;
36189;SDS011;22232;50.914;13.858;2022-07-29T00:34:06;126.15;;;78.97;;
36189;SDS011;22232;50.914;13.858;2022-07-29T00:36:53;130.80;;;81.88;;
36189;SDS011;22232;50.914;13.858;2022-07-29T00:39:21;122.93;;;78.97;;
36189;SDS011;22232;50.914;13.858;2022-07-29T00:41:48;129.75;;;80.13;;
36189;SDS011;22232;50.914;13.858;2022-07-29T00:44:16;129.52;;;82.75;;
36189;SDS011;22232;50.914;13.858;2022-07-29T00:46:44;140.18;;;88.60;;
36189;SDS011;22232;50.914;13.858;2022-07-29T00:49:12;157.75;;;97.53;;
36189;SDS011;22232;50.914;13.858;2022-07-29T00:51:40;150.75;;;94.65;;
36189;SDS011;22232;50.914;13.858;2022-07-29T00:54:07;146.35;;;90.72;;
36189;SDS011;22232;50.914;13.858;2022-07-29T00:56:35;140.10;;;88.82;;
36189;SDS011;22232;50.914;13.858;2022-07-29T00:59:03;145.00;;;88.20;;
36189;SDS011;22232;50.914;13.858;2022-07-29T01:01:30;132.07;;;80.60;;
36189;SDS011;22232;50.914;13.858;2022-07-29T01:03:58;124.68;;;71.10;;
36189;SDS011;22232;50.914;13.858;2022-07-29T01:06:26;110.90;;;65.70;;
36189;SDS011;22232;50.914;13.858;2022-07-29T01:08:54;102.72;;;61.00;;
36189;SDS011;22232;50.914;13.858;2022-07-29T01:11:22;101.13;;;62.53;;
36189;SDS011;22232;50.914;13.858;2022-07-29T01:13:50;98.97;;;60.00;;
36189;SDS011;22232;50.914;13.858;2022-07-29T01:16:23;103.03;;;59.00;;
36189;SDS011;22232;50.914;13.858;2022-07-29T01:19:13;91.85;;;55.97;;
36189;SDS011;22232;50.914;13.858;2022-07-29T01:22:18;89.43;;;54.42;;
36189;SDS011;22232;50.914;13.858;2022-07-29T01:25:03;91.53;;;52.92;;
36189;SDS011;22232;50.914;13.858;2022-07-29T01:30:22;77.85;;;45.80;;
36189;SDS011;22232;50.914;13.858;2022-07-29T01:32:56;72.18;;;40.47;;
36189;SDS011;22232;50.914;13.858;2022-07-29T01:35:31;70.78;;;38.58;;
36189;SDS011;22232;50.914;13.858;2022-07-29T01:38:13;68.70;;;39.88;;
36189;SDS011;22232;50.914;13.858;2022-07-29T01:40:51;85.15;;;45.65;;
36189;SDS011;22232;50.914;13.858;2022-07-29T01:43:23;88.55;;;49.78;;
36189;SDS011;22232;50.914;13.858;2022-07-29T01:46:02;88.40;;;52.40;;
36189;SDS011;22232;50.914;13.858;2022-07-29T01:48:38;87.68;;;49.92;;
36189;SDS011;22232;50.914;13.858;2022-07-29T01:53:46;81.22;;;47.80;;
36189;SDS011;22232;50.914;13.858;2022-07-29T01:56:22;80.43;;;45.15;;
36189;SDS011;22232;50.914;13.858;2022-07-29T01:58:52;66.53;;;39.33;;
36189;SDS011;22232;50.914;13.858;2022-07-29T02:01:21;62.10;;;35.55;;
36189;SDS011;22232;50.914;13.858;2022-07-29T02:03:52;46.38;;;31.20;;
36189;SDS011;22232;50.914;13.858;2022-07-29T02:06:22;56.97;;;35.33;;
36189;SDS011;22232;50.914;13.858;2022-07-29T02:08:51;58.00;;;34.63;;
36189;SDS011;22232;50.914;13.858;2022-07-29T02:11:21;59.75;;;34.72;;
36189;SDS011;22232;50.914;13.858;2022-07-29T02:13:48;55.25;;;34.83;;
36189;SDS011;22232;50.914;13.858;2022-07-29T02:16:20;59.85;;;35.03;;
36189;SDS011;22232;50.914;13.858;2022-07-29T02:18:50;60.75;;;35.13;;
36189;SDS011;22232;50.914;13.858;2022-07-29T02:21:21;59.85;;;37.38;;
36189;SDS011;22232;50.914;13.858;2022-07-29T02:23:52;74.15;;;43.15;;
36189;SDS011;22232;50.914;13.858;2022-07-29T02:26:22;82.28;;;45.80;;
36189;SDS011;22232;50.914;13.858;2022-07-29T02:28:52;75.65;;;43.75;;
36189;SDS011;22232;50.914;13.858;2022-07-29T02:31:23;75.40;;;42.35;;
36189;SDS011;22232;50.914;13.858;2022-07-29T02:33:53;66.45;;;40.15;;
36189;SDS011;22232;50.914;13.858;2022-07-29T02:36:22;76.75;;;41.15;;
36189;SDS011;22232;50.914;13.858;2022-07-29T02:38:50;87.18;;;47.70;;
36189;SDS011;22232;50.914;13.858;2022-07-29T02:41:23;80.80;;;45.08;;
36189;SDS011;22232;50.914;13.858;2022-07-29T02:44:03;77.10;;;46.55;;
36189;SDS011;22232;50.914;13.858;2022-07-29T02:46:37;70.75;;;41.25;;
36189;SDS011;22232;50.914;13.858;2022-07-29T02:49:58;64.88;;;37.35;;
36189;SDS011;22232;50.914;13.858;2022-07-29T02:52:33;64.20;;;37.58;;
36189;SDS011;22232;50.914;13.858;2022-07-29T02:57:43;73.53;;;41.65;;
36189;SDS011;22232;50.914;13.858;2022-07-29T03:00:21;71.95;;;40.25;;
36189;SDS011;22232;50.914;13.858;2022-07-29T03:02:54;64.18;;;37.72;;
36189;SDS011;22232;50.914;13.858;2022-07-29T03:05:25;70.72;;;38.55;;
36189;SDS011;22232;50.914;13.858;2022-07-29T03:07:57;66.90;;;37.42;;
36189;SDS011;22232;50.914;13.858;2022-07-29T03:10:28;66.85;;;36.45;;
36189;SDS011;22232;50.914;13.858;2022-07-29T03:12:57;64.93;;;38.35;;
36189;SDS011;22232;50.914;13.858;2022-07-29T03:15:26;68.20;;;37.70;;
36189;SDS011;22232;50.914;13.858;2022-07-29T03:17:54;62.85;;;37.35;;
36189;SDS011;22232;50.914;13.858;2022-07-29T03:20:22;65.38;;;36.88;;
36189;SDS011;22232;50.914;13.858;2022-07-29T03:22:51;66.65;;;37.63;;
36189;SDS011;22232;50.914;13.858;2022-07-29T03:25:19;64.13;;;36.20;;
36189;SDS011;22232;50.914;13.858;2022-07-29T03:27:47;65.78;;;36.22;;
36189;SDS011;22232;50.914;13.858;2022-07-29T03:30:15;57.47;;;33.72;;
36189;SDS011;22232;50.914;13.858;2022-07-29T03:32:48;58.38;;;34.28;;
36189;SDS011;22232;50.914;13.858;2022-07-29T03:35:19;69.45;;;38.35;;
36189;SDS011;22232;50.914;13.858;2022-07-29T03:37:47;62.60;;;36.00;;
36189;SDS011;22232;50.914;13.858;2022-07-29T03:40:19;67.63;;;38.20;;
36189;SDS011;22232;50.914;13.858;2022-07-29T03:42:51;63.28;;;37.03;;
36189;SDS011;22232;50.914;13.858;2022-07-29T03:45:22;64.22;;;36.20;;
36189;SDS011;22232;50.914;13.858;2022-07-29T03:47:51;59.50;;;34.80;;
36189;SDS011;22232;50.914;13.858;2022-07-29T03:50:27;69.22;;;37.47;;
36189;SDS011;22232;50.914;13.858;2022-07-29T03:52:57;70.53;;;37.17;;
36189;SDS011;22232;50.914;13.858;2022-07-29T03:55:26;70.40;;;36.60;;
36189;SDS011;22232;50.914;13.858;2022-07-29T03:57:56;70.60;;;39.15;;
36189;SDS011;22232;50.914;13.858;2022-07-29T04:00:25;77.50;;;42.22;;
36189;SDS011;22232;50.914;13.858;2022-07-29T04:02:54;73.90;;;38.90;;
36189;SDS011;22232;50.914;13.858;2022-07-29T04:05:21;66.50;;;36.60;;
36189;SDS011;22232;50.914;13.858;2022-07-29T04:07:49;53.40;;;30.60;;
36189;SDS011;22232;50.914;13.858;2022-07-29T04:10:17;50.03;;;25.90;;
36189;SDS011;22232;50.914;13.858;2022-07-29T04:12:58;41.33;;;22.50;;
36189;SDS011;22232;50.914;13.858;2022-07-29T04:15:26;29.50;;;17.23;;
36189;SDS011;22232;50.914;13.858;2022-07-29T04:17:58;28.73;;;15.02;;
36189;SDS011;22232;50.914;13.858;2022-07-29T04:20:26;24.55;;;13.15;;
36189;SDS011;22232;50.914;13.858;2022-07-29T04:22:54;20.73;;;12.80;;
36189;SDS011;22232;50.914;13.858;2022-07-29T04:25:21;21.33;;;10.70;;
36189;SDS011;22232;50.914;13.858;2022-07-29T04:27:49;20.23;;;11.50;;
36189;SDS011;22232;50.914;13.858;2022-07-29T04:30:29;22.08;;;9.90;;
36189;SDS011;22232;50.914;13.858;2022-07-29T04:32:58;13.68;;;7.75;;
36189;SDS011;22232;50.914;13.858;2022-07-29T04:35:28;14.80;;;7.75;;
36189;SDS011;22232;50.914;13.858;2022-07-29T04:38:05;13.20;;;7.00;;
36189;SDS011;22232;50.914;13.858;2022-07-29T04:40:41;19.10;;;7.43;;
36189;SDS011;22232;50.914;13.858;2022-07-29T04:43:17;11.10;;;6.97;;
36189;SDS011;22232;50.914;13.858;2022-07-29T04:45:49;15.93;;;7.40;;
36189;SDS011;22232;50.914;13.858;2022-07-29T04:48:17;22.10;;;8.10;;
36189;SDS011;22232;50.914;13.858;2022-07-29T04:50:45;16.50;;;7.53;;
36189;SDS011;22232;50.914;13.858;2022-07-29T04:53:12;14.40;;;7.03;;
36189;SDS011;22232;50.914;13.858;2022-07-29T04:55:40;20.40;;;7.20;;
36189;SDS011;22232;50.914;13.858;2022-07-29T04:58:07;18.90;;;8.23;;
36189;SDS011;22232;50.914;13.858;2022-07-29T05:00:35;21.42;;;10.40;;
36189;SDS011;22232;50.914;13.858;2022-07-29T05:03:03;19.13;;;9.18;;
36189;SDS011;22232;50.914;13.858;2022-07-29T05:05:31;22.58;;;11.18;;
36189;SDS011;22232;50.914;13.858;2022-07-29T05:07:59;43.03;;;22.02;;
36189;SDS011;22232;50.914;13.858;2022-07-29T05:10:26;48.95;;;26.55;;
36189;SDS011;22232;50.914;13.858;2022-07-29T05:12:54;95.32;;;47.47;;
36189;SDS011;22232;50.914;13.858;2022-07-29T05:15:22;147.80;;;75.78;;
36189;SDS011;22232;50.914;13.858;2022-07-29T05:17:50;115.45;;;58.35;;
36189;SDS011;22232;50.914;13.858;2022-07-29T05:20:17;117.65;;;61.03;;
36189;SDS011;22232;50.914;13.858;2022-07-29T05:22:45;113.15;;;53.97;;
36189;SDS011;22232;50.914;13.858;2022-07-29T05:25:13;100.63;;;51.45;;
36189;SDS011;22232;50.914;13.858;2022-07-29T05:27:40;127.15;;;62.33;;
36189;SDS011;22232;50.914;13.858;2022-07-29T05:30:08;189.05;;;94.80;;
36189;SDS011;22232;50.914;13.858;2022-07-29T05:32:58;188.73;;;93.32;;
36189;SDS011;22232;50.914;13.858;2022-07-29T05:35:26;165.60;;;88.82;;
36189;SDS011;22232;50.914;13.858;2022-07-29T05:37:53;195.55;;;94.38;;
36189;SDS011;22232;50.914;13.858;2022-07-29T05:40:21;150.95;;;75.90;;
36189;SDS011;22232;50.914;13.858;2022-07-29T05:42:48;137.52;;;71.25;;
36189;SDS011;22232;50.914;13.858;2022-07-29T05:45:16;131.15;;;67.03;;
36189;SDS011;22232;50.914;13.858;2022-07-29T05:47:43;120.90;;;58.75;;
36189;SDS011;22232;50.914;13.858;2022-07-29T05:50:11;117.60;;;55.25;;
36189;SDS011;22232;50.914;13.858;2022-07-29T05:52:39;89.93;;;49.38;;
36189;SDS011;22232;50.914;13.858;2022-07-29T05:55:07;122.00;;;58.17;;
36189;SDS011;22232;50.914;13.858;2022-07-29T05:57:34;127.97;;;61.08;;
36189;SDS011;22232;50.914;13.858;2022-07-29T06:00:02;126.70;;;63.63;;
36189;SDS011;22232;50.914;13.858;2022-07-29T06:02:38;137.05;;;71.30;;
36189;SDS011;22232;50.914;13.858;2022-07-29T06:05:05;141.57;;;75.18;;
36189;SDS011;22232;50.914;13.858;2022-07-29T06:07:43;151.73;;;79.60;;
36189;SDS011;22232;50.914;13.858;2022-07-29T06:10:16;158.57;;;85.15;;
36189;SDS011;22232;50.914;13.858;2022-07-29T06:12:44;165.68;;;86.63;;
36189;SDS011;22232;50.914;13.858;2022-07-29T06:15:12;167.18;;;84.00;;
36189;SDS011;22232;50.914;13.858;2022-07-29T06:17:39;155.65;;;82.25;;
36189;SDS011;22232;50.914;13.858;2022-07-29T06:20:26;138.38;;;74.43;;
36189;SDS011;22232;50.914;13.858;2022-07-29T06:22:57;119.78;;;63.60;;
36189;SDS011;22232;50.914;13.858;2022-07-29T06:25:25;91.38;;;52.90;;
36189;SDS011;22232;50.914;13.858;2022-07-29T06:27:53;98.95;;;52.72;;
36189;SDS011;22232;50.914;13.858;2022-07-29T06:30:20;103.18;;;54.13;;
36189;SDS011;22232;50.914;13.858;2022-07-29T06:32:49;109.70;;;57.70;;
36189;SDS011;22232;50.914;13.858;2022-07-29T06:35:16;121.97;;;66.20;;
36189;SDS011;22232;50.914;13.858;2022-07-29T06:38:04;135.38;;;73.80;;
36189;SDS011;22232;50.914;13.858;2022-07-29T06:40:51;147.02;;;81.20;;
36189;SDS011;22232;50.914;13.858;2022-07-29T06:43:30;187.98;;;100.85;;
36189;SDS011;22232;50.914;13.858;2022-07-29T06:46:20;193.70;;;105.95;;
36189;SDS011;22232;50.914;13.858;2022-07-29T06:48:49;196.52;;;105.80;;
36189;SDS011;22232;50.914;13.858;2022-07-29T06:51:19;179.80;;;100.70;;
36189;SDS011;22232;50.914;13.858;2022-07-29T06:53:50;190.07;;;100.57;;
36189;SDS011;22232;50.914;13.858;2022-07-29T06:56:39;143.60;;;77.93;;
36189;SDS011;22232;50.914;13.858;2022-07-29T06:59:09;128.20;;;70.80;;
36189;SDS011;22232;50.914;13.858;2022-07-29T07:01:38;136.70;;;76.55;;
36189;SDS011;22232;50.914;13.858;2022-07-29T07:04:09;152.60;;;85.32;;
36189;SDS011;22232;50.914;13.858;2022-07-29T07:06:37;167.45;;;91.53;;
36189;SDS011;22232;50.914;13.858;2022-07-29T07:09:05;215.25;;;116.65;;
36189;SDS011;22232;50.914;13.858;2022-07-29T07:11:33;234.32;;;130.25;;
36189;SDS011;22232;50.914;13.858;2022-07-29T07:14:01;272.42;;;147.25;;
36189;SDS011;22232;50.914;13.858;2022-07-29T07:16:30;291.38;;;155.60;;
36189;SDS011;22232;50.914;13.858;2022-07-29T07:18:59;284.58;;;163.02;;
36189;SDS011;22232;50.914;13.858;2022-07-29T07:21:27;292.58;;;163.43;;
36189;SDS011;22232;50.914;13.858;2022-07-29T07:23:57;311.77;;;173.35;;
36189;SDS011;22232;50.914;13.858;2022-07-29T07:26:25;351.42;;;200.27;;
36189;SDS011;22232;50.914;13.858;2022-07-29T07:28:54;328.10;;;186.98;;
36189;SDS011;22232;50.914;13.858;2022-07-29T07:31:21;337.95;;;195.90;;
36189;SDS011;22232;50.914;13.858;2022-07-29T07:33:49;322.88;;;181.95;;
36189;SDS011;22232;50.914;13.858;2022-07-29T07:36:17;320.02;;;186.90;;
36189;SDS011;22232;50.914;13.858;2022-07-29T07:38:44;336.80;;;189.50;;
36189;SDS011;22232;50.914;13.858;2022-07-29T07:41:12;325.15;;;184.25;;
36189;SDS011;22232;50.914;13.858;2022-07-29T07:43:40;330.98;;;186.82;;
36189;SDS011;22232;50.914;13.858;2022-07-29T07:46:07;304.58;;;173.82;;
36189;SDS011;22232;50.914;13.858;2022-07-29T07:48:35;304.92;;;182.48;;
36189;SDS011;22232;50.914;13.858;2022-07-29T07:51:03;300.67;;;180.07;;
36189;SDS011;22232;50.914;13.858;2022-07-29T07:53:30;297.95;;;177.90;;
36189;SDS011;22232;50.914;13.858;2022-07-29T07:55:58;297.27;;;170.00;;
36189;SDS011;22232;50.914;13.858;2022-07-29T07:58:37;285.90;;;168.95;;
36189;SDS011;22232;50.914;13.858;2022-07-29T08:01:05;277.27;;;157.32;;
36189;SDS011;22232;50.914;13.858;2022-07-29T08:03:34;239.43;;;137.55;;
36189;SDS011;22232;50.914;13.858;2022-07-29T08:06:02;251.18;;;139.93;;
36189;SDS011;22232;50.914;13.858;2022-07-29T08:08:31;210.82;;;124.05;;
36189;SDS011;22232;50.914;13.858;2022-07-29T08:10:58;218.35;;;129.00;;
36189;SDS011;22232;50.914;13.858;2022-07-29T08:13:35;229.38;;;126.70;;
36189;SDS011;22232;50.914;13.858;2022-07-29T08:16:03;233.35;;;132.90;;
36189;SDS011;22232;50.914;13.858;2022-07-29T08:18:42;232.07;;;127.30;;
36189;SDS011;22232;50.914;13.858;2022-07-29T08:21:13;185.13;;;107.28;;
36189;SDS011;22232;50.914;13.858;2022-07-29T08:23:43;168.82;;;95.72;;
36189;SDS011;22232;50.914;13.858;2022-07-29T08:26:25;152.35;;;88.47;;
36189;SDS011;22232;50.914;13.858;2022-07-29T08:28:53;148.38;;;87.30;;
36189;SDS011;22232;50.914;13.858;2022-07-29T08:31:21;140.50;;;75.85;;
36189;SDS011;22232;50.914;13.858;2022-07-29T08:33:48;128.25;;;76.15;;
36189;SDS011;22232;50.914;13.858;2022-07-29T08:36:16;112.03;;;63.25;;
36189;SDS011;22232;50.914;13.858;2022-07-29T08:38:43;122.40;;;67.05;;
36189;SDS011;22232;50.914;13.858;2022-07-29T08:41:11;110.82;;;62.30;;
36189;SDS011;22232;50.914;13.858;2022-07-29T08:43:39;104.05;;;56.40;;
36189;SDS011;22232;50.914;13.858;2022-07-29T08:46:08;73.80;;;43.70;;
36189;SDS011;22232;50.914;13.858;2022-07-29T08:48:35;88.65;;;49.40;;
36189;SDS011;22232;50.914;13.858;2022-07-29T08:51:03;94.25;;;48.47;;
36189;SDS011;22232;50.914;13.858;2022-07-29T08:53:34;78.43;;;46.10;;
36189;SDS011;22232;50.914;13.858;2022-07-29T08:56:05;84.53;;;46.00;;
36189;SDS011;22232;50.914;13.858;2022-07-29T08:58:33;83.13;;;43.90;;
36189;SDS011;22232;50.914;13.858;2022-07-29T09:01:03;79.20;;;44.95;;
36189;SDS011;22232;50.914;13.858;2022-07-29T09:03:33;82.75;;;44.17;;
36189;SDS011;22232;50.914;13.858;2022-07-29T09:06:03;85.22;;;44.58;;
36189;SDS011;22232;50.914;13.858;2022-07-29T09:08:31;85.13;;;44.25;;
36189;SDS011;22232;50.914;13.858;2022-07-29T09:11:02;79.20;;;44.92;;
36189;SDS011;22232;50.914;13.858;2022-07-29T09:13:31;79.85;;;45.38;;
36189;SDS011;22232;50.914;13.858;2022-07-29T09:15:59;77.60;;;43.20;;
36189;SDS011;22232;50.914;13.858;2022-07-29T09:18:38;74.53;;;42.30;;
36189;SDS011;22232;50.914;13.858;2022-07-29T09:21:08;72.10;;;40.67;;
36189;SDS011;22232;50.914;13.858;2022-07-29T09:24:07;56.20;;;31.95;;
36189;SDS011;22232;50.914;13.858;2022-07-29T09:26:39;54.63;;;32.42;;
36189;SDS011;22232;50.914;13.858;2022-07-29T09:29:15;55.30;;;31.75;;
36189;SDS011;22232;50.914;13.858;2022-07-29T09:31:48;46.47;;;26.30;;
36189;SDS011;22232;50.914;13.858;2022-07-29T09:34:21;44.05;;;25.70;;
36189;SDS011;22232;50.914;13.858;2022-07-29T09:36:53;54.67;;;32.05;;
36189;SDS011;22232;50.914;13.858;2022-07-29T09:39:29;52.17;;;30.33;;
36189;SDS011;22232;50.914;13.858;2022-07-29T09:41:58;51.70;;;28.85;;
36189;SDS011;22232;50.914;13.858;2022-07-29T09:44:40;40.78;;;25.48;;
36189;SDS011;22232;50.914;13.858;2022-07-29T09:47:16;9.25;;;5.28;;
36189;SDS011;22232;50.914;13.858;2022-07-29T09:49:52;6.35;;;4.13;;
36189;SDS011;22232;50.914;13.858;2022-07-29T09:52:27;6.32;;;4.38;;
36189;SDS011;22232;50.914;13.858;2022-07-29T09:55:14;4.57;;;2.70;;
36189;SDS011;22232;50.914;13.858;2022-07-29T09:57:45;5.28;;;2.30;;
36189;SDS011;22232;50.914;13.858;2022-07-29T10:00:15;4.30;;;2.40;;
36189;SDS011;22232;50.914;13.858;2022-07-29T10:02:46;5.43;;;2.55;;
36189;SDS011;22232;50.914;13.858;2022-07-29T10:10:20;4.55;;;2.42;;
36189;SDS011;22232;50.914;13.858;2022-07-29T10:12:55;4.00;;;2.22;;
36189;SDS011;22232;50.914;13.858;2022-07-29T10:15:35;3.92;;;2.30;;
36189;SDS011;22232;50.914;13.858;2022-07-29T10:18:08;6.18;;;2.42;;
36189;SDS011;22232;50.914;13.858;2022-07-29T10:20:36;2.53;;;2.20;;
36189;SDS011;22232;50.914;13.858;2022-07-29T10:23:05;4.53;;;2.50;;
36189;SDS011;22232;50.914;13.858;2022-07-29T10:25:32;5.00;;;2.40;;
36189;SDS011;22232;50.914;13.858;2022-07-29T10:28:00;4.85;;;2.30;;
36189;SDS011;22232;50.914;13.858;2022-07-29T10:30:27;5.95;;;2.33;;
36189;SDS011;22232;50.914;13.858;2022-07-29T10:33:14;3.85;;;2.20;;
36189;SDS011;22232;50.914;13.858;2022-07-29T10:38:41;4.95;;;2.13;;
36189;SDS011;22232;50.914;13.858;2022-07-29T10:44:17;2.80;;;2.00;;
36189;SDS011;22232;50.914;13.858;2022-07-29T10:46:49;4.90;;;2.05;;
36189;SDS011;22232;50.914;13.858;2022-07-29T10:49:19;3.92;;;2.80;;
36189;SDS011;22232;50.914;13.858;2022-07-29T10:59:43;3.95;;;2.30;;
36189;SDS011;22232;50.914;13.858;2022-07-29T11:07:40;4.25;;;2.38;;
36189;SDS011;22232;50.914;13.858;2022-07-29T11:10:50;8.02;;;2.58;;
36189;SDS011;22232;50.914;13.858;2022-07-29T11:16:08;5.10;;;2.58;;
36189;SDS011;22232;50.914;13.858;2022-07-29T11:19:14;6.18;;;2.55;;
36189;SDS011;22232;50.914;13.858;2022-07-29T11:21:52;6.18;;;3.10;;
36189;SDS011;22232;50.914;13.858;2022-07-29T11:24:25;3.85;;;2.40;;
36189;SDS011;22232;50.914;13.858;2022-07-29T11:30:06;5.68;;;2.45;;
36189;SDS011;22232;50.914;13.858;2022-07-29T11:32:37;3.67;;;2.30;;
36189;SDS011;22232;50.914;13.858;2022-07-29T11:35:19;3.50;;;2.40;;
36189;SDS011;22232;50.914;13.858;2022-07-29T11:38:26;6.90;;;2.47;;
36189;SDS011;22232;50.914;13.858;2022-07-29T11:43:50;4.43;;;2.70;;
36189;SDS011;22232;50.914;13.858;2022-07-29T11:52:02;4.13;;;2.88;;
36189;SDS011;22232;50.914;13.858;2022-07-29T11:54:32;3.70;;;2.53;;
36189;SDS011;22232;50.914;13.858;2022-07-29T11:57:21;5.07;;;2.50;;
36189;SDS011;22232;50.914;13.858;2022-07-29T12:00:06;3.83;;;2.30;;
36189;SDS011;22232;50.914;13.858;2022-07-29T12:02:58;4.53;;;2.70;;
36189;SDS011;22232;50.914;13.858;2022-07-29T12:05:35;5.55;;;2.33;;
36189;SDS011;22232;50.914;13.858;2022-07-29T12:08:18;4.63;;;2.30;;
36189;SDS011;22232;50.914;13.858;2022-07-29T12:10:49;5.10;;;2.45;;
36189;SDS011;22232;50.914;13.858;2022-07-29T12:13:18;3.88;;;2.50;;
36189;SDS011;22232;50.914;13.858;2022-07-29T12:15:54;3.75;;;2.45;;
36189;SDS011;22232;50.914;13.858;2022-07-29T12:18:26;3.63;;;2.08;;
36189;SDS011;22232;50.914;13.858;2022-07-29T12:21:00;6.40;;;2.72;;
36189;SDS011;22232;50.914;13.858;2022-07-29T12:23:32;6.22;;;2.40;;
36189;SDS011;22232;50.914;13.858;2022-07-29T12:26:04;5.68;;;2.65;;
36189;SDS011;22232;50.914;13.858;2022-07-29T12:28:48;6.13;;;2.50;;
36189;SDS011;22232;50.914;13.858;2022-07-29T12:31:16;2.33;;;2.00;;
36189;SDS011;22232;50.914;13.858;2022-07-29T12:34:04;5.93;;;3.10;;
36189;SDS011;22232;50.914;13.858;2022-07-29T12:36:32;2.70;;;2.13;;
36189;SDS011;22232;50.914;13.858;2022-07-29T12:39:00;3.65;;;2.50;;
36189;SDS011;22232;50.914;13.858;2022-07-29T12:41:28;3.03;;;2.58;;
36189;SDS011;22232;50.914;13.858;2022-07-29T12:43:56;3.40;;;2.38;;
36189;SDS011;22232;50.914;13.858;2022-07-29T12:46:24;3.00;;;2.22;;
36189;SDS011;22232;50.914;13.858;2022-07-29T12:48:52;5.75;;;2.50;;
36189;SDS011;22232;50.914;13.858;2022-07-29T12:51:34;2.27;;;2.03;;
36189;SDS011;22232;50.914;13.858;2022-07-29T12:54:08;3.55;;;2.72;;
36189;SDS011;22232;50.914;13.858;2022-07-29T12:56:43;8.60;;;2.45;;
36189;SDS011;22232;50.914;13.858;2022-07-29T12:59:15;3.75;;;2.55;;
36189;SDS011;22232;50.914;13.858;2022-07-29T13:01:44;3.47;;;2.60;;
36189;SDS011;22232;50.914;13.858;2022-07-29T13:04:25;7.35;;;2.38;;
36189;SDS011;22232;50.914;13.858;2022-07-29T13:07:04;2.60;;;2.35;;
36189;SDS011;22232;50.914;13.858;2022-07-29T13:09:40;3.35;;;2.22;;
36189;SDS011;22232;50.914;13.858;2022-07-29T13:14:39;3.95;;;2.58;;
36189;SDS011;22232;50.914;13.858;2022-07-29T13:17:10;6.45;;;2.42;;
36189;SDS011;22232;50.914;13.858;2022-07-29T13:19:40;4.00;;;2.53;;
36189;SDS011;22232;50.914;13.858;2022-07-29T13:22:10;5.05;;;2.50;;
36189;SDS011;22232;50.914;13.858;2022-07-29T13:27:37;3.78;;;2.80;;
36189;SDS011;22232;50.914;13.858;2022-07-29T13:30:06;4.55;;;2.30;;
36189;SDS011;22232;50.914;13.858;2022-07-29T13:32:36;4.38;;;2.80;;
36189;SDS011;22232;50.914;13.858;2022-07-29T13:35:05;4.55;;;2.45;;
36189;SDS011;22232;50.914;13.858;2022-07-29T13:37:35;2.72;;;2.30;;
36189;SDS011;22232;50.914;13.858;2022-07-29T13:40:06;6.47;;;2.53;;
36189;SDS011;22232;50.914;13.858;2022-07-29T13:42:35;3.42;;;2.58;;
36189;SDS011;22232;50.914;13.858;2022-07-29T13:45:03;3.80;;;2.53;;
36189;SDS011;22232;50.914;13.858;2022-07-29T13:47:32;3.38;;;2.30;;
36189;SDS011;22232;50.914;13.858;2022-07-29T13:50:00;27.27;;;3.05;;
36189;SDS011;22232;50.914;13.858;2022-07-29T13:52:28;11.55;;;2.75;;
36189;SDS011;22232;50.914;13.858;2022-07-29T13:54:56;4.90;;;2.50;;
36189;SDS011;22232;50.914;13.858;2022-07-29T13:57:24;3.88;;;2.80;;
36189;SDS011;22232;50.914;13.858;2022-07-29T13:59:51;5.55;;;2.22;;
36189;SDS011;22232;50.914;13.858;2022-07-29T14:02:20;4.18;;;2.72;;
36189;SDS011;22232;50.914;13.858;2022-07-29T14:04:54;5.93;;;2.92;;
36189;SDS011;22232;50.914;13.858;2022-07-29T14:07:22;4.05;;;2.85;;
36189;SDS011;22232;50.914;13.858;2022-07-29T14:10:06;3.47;;;2.80;;
36189;SDS011;22232;50.914;13.858;2022-07-29T14:12:34;4.32;;;2.58;;
36189;SDS011;22232;50.914;13.858;2022-07-29T14:15:02;4.28;;;2.47;;
36189;SDS011;22232;50.914;13.858;2022-07-29T14:17:29;3.53;;;2.70;;
36189;SDS011;22232;50.914;13.858;2022-07-29T14:19:57;6.53;;;2.92;;
36189;SDS011;22232;50.914;13.858;2022-07-29T14:22:24;4.15;;;2.50;;
36189;SDS011;22232;50.914;13.858;2022-07-29T14:24:52;3.50;;;2.58;;
36189;SDS011;22232;50.914;13.858;2022-07-29T14:27:20;2.55;;;2.35;;
36189;SDS011;22232;50.914;13.858;2022-07-29T14:30:05;5.05;;;2.67;;
36189;SDS011;22232;50.914;13.858;2022-07-29T14:32:33;5.32;;;2.75;;
36189;SDS011;22232;50.914;13.858;2022-07-29T14:35:00;3.58;;;3.00;;
36189;SDS011;22232;50.914;13.858;2022-07-29T14:37:28;3.30;;;2.92;;
36189;SDS011;22232;50.914;13.858;2022-07-29T14:40:07;4.63;;;2.65;;
36189;SDS011;22232;50.914;13.858;2022-07-29T14:42:35;3.90;;;2.20;;
36189;SDS011;22232;50.914;13.858;2022-07-29T14:45:04;3.22;;;2.67;;
36189;SDS011;22232;50.914;13.858;2022-07-29T14:47:33;6.53;;;2.55;;
36189;SDS011;22232;50.914;13.858;2022-07-29T14:50:01;5.97;;;3.08;;
36189;SDS011;22232;50.914;13.858;2022-07-29T14:52:30;2.47;;;2.28;;
36189;SDS011;22232;50.914;13.858;2022-07-29T14:54:58;6.53;;;2.58;;
36189;SDS011;22232;50.914;13.858;2022-07-29T14:57:26;3.30;;;2.40;;
36189;SDS011;22232;50.914;13.858;2022-07-29T14:59:54;3.28;;;2.35;;
36189;SDS011;22232;50.914;13.858;2022-07-29T15:02:21;3.78;;;2.45;;
36189;SDS011;22232;50.914;13.858;2022-07-29T15:05:01;5.20;;;2.30;;
36189;SDS011;22232;50.914;13.858;2022-07-29T15:07:29;4.93;;;2.88;;
36189;SDS011;22232;50.914;13.858;2022-07-29T15:09:57;4.47;;;2.35;;
36189;SDS011;22232;50.914;13.858;2022-07-29T15:12:25;4.95;;;2.85;;
36189;SDS011;22232;50.914;13.858;2022-07-29T15:14:53;4.65;;;2.67;;
36189;SDS011;22232;50.914;13.858;2022-07-29T15:17:21;2.85;;;2.42;;
36189;SDS011;22232;50.914;13.858;2022-07-29T15:19:48;6.85;;;2.70;;
36189;SDS011;22232;50.914;13.858;2022-07-29T15:22:16;5.78;;;2.97;;
36189;SDS011;22232;50.914;13.858;2022-07-29T15:24:44;4.47;;;2.50;;
36189;SDS011;22232;50.914;13.858;2022-07-29T15:27:11;6.22;;;2.70;;
36189;SDS011;22232;50.914;13.858;2022-07-29T15:29:41;5.57;;;2.72;;
36189;SDS011;22232;50.914;13.858;2022-07-29T15:32:09;3.33;;;2.63;;